Time;durP1;ratioP1;P1;durP2;ratioP2;P2;SDS_P1;SDS_P2;PMS_P1;PMS_P2;Temp;Humidity;BMP_temperature;BMP_pressure;BME280_temperature;BME280_humidity;BME280_pressure;Samples;Min_cycle;Max_cycle;Signal;HPM_P1;HPM_P2
2021/12/13 05:01:27;;;;;;;29.10;16.85;;;5.30;99.90;;;;;;5412429;23;91550;-78
2021/12/13 05:03:57;;;;;;;30.00;16.00;;;5.30;99.90;;;;;;4901560;28;90312;-78
2021/12/13 05:06:36;;;;;;;32.20;16.65;;;5.30;99.90;;;;;;4902154;28;89553;-78
2021/12/13 05:09:07;;;;;;;32.33;17.10;;;5.40;99.90;;;;;;4902753;28;89282;-79
2021/12/13 05:11:38;;;;;;;37.70;20.30;;;5.40;99.90;;;;;;4890294;28;92964;-79
2021/12/13 05:14:06;;;;;;;38.75;20.10;;;5.30;99.90;;;;;;4883473;28;90142;-79
2021/12/13 05:16:53;;;;;;;34.45;19.30;;;5.30;99.90;;;;;;4880112;28;94054;-78
2021/12/13 05:19:35;;;;;;;32.28;17.45;;;5.30;99.90;;;;;;4878893;28;89301;-78
2021/12/13 05:22:05;;;;;;;38.88;18.60;;;5.30;99.90;;;;;;4880579;28;90065;-77
2021/12/13 05:24:47;;;;;;;33.50;17.80;;;5.30;99.90;;;;;;4879724;28;90099;-77
2021/12/13 05:27:16;;;;;;;43.92;18.50;;;5.30;99.90;;;;;;4880240;28;89200;-78
2021/12/13 05:29:48;;;;;;;31.25;16.42;;;5.30;99.90;;;;;;4879535;28;90217;-77
2021/12/13 05:32:21;;;;;;;29.98;16.00;;;5.30;99.90;;;;;;4881205;28;89492;-77
2021/12/13 05:34:56;;;;;;;34.55;15.95;;;5.30;99.90;;;;;;4880142;28;90506;-77
2021/12/13 05:37:23;;;;;;;36.40;16.70;;;5.30;99.90;;;;;;4878647;28;92122;-77
2021/12/13 05:39:54;;;;;;;31.15;16.10;;;5.30;99.90;;;;;;4880075;28;89528;-77
2021/12/13 05:42:20;;;;;;;39.30;18.08;;;5.30;99.90;;;;;;4879706;28;89379;-77
2021/12/13 05:44:47;;;;;;;41.33;17.42;;;5.30;99.90;;;;;;4879359;28;89863;-78
2021/12/13 05:47:27;;;;;;;38.33;16.98;;;5.30;99.90;;;;;;4880154;28;90005;-77
2021/12/13 05:49:53;;;;;;;32.55;16.80;;;5.30;99.90;;;;;;4878507;28;89364;-78
2021/12/13 05:52:26;;;;;;;34.42;16.98;;;5.30;99.90;;;;;;4879353;28;90322;-77
2021/12/13 05:54:57;;;;;;;32.55;17.02;;;5.30;99.90;;;;;;4879100;28;91360;-77
2021/12/13 05:57:30;;;;;;;35.75;18.00;;;5.30;99.90;;;;;;4882727;28;91165;-78
2021/12/13 06:00:27;;;;;;;34.22;16.77;;;5.30;99.90;;;;;;4883276;28;89208;-77
2021/12/13 06:03:16;;;;;;;32.33;17.73;;;5.30;99.90;;;;;;4883404;28;89559;-77
2021/12/13 06:05:46;;;;;;;39.78;18.17;;;5.30;99.90;;;;;;4883551;28;90101;-77
2021/12/13 06:08:19;;;;;;;30.75;17.10;;;5.30;99.90;;;;;;4882313;28;92710;-77
2021/12/13 06:10:51;;;;;;;32.45;16.05;;;5.30;99.90;;;;;;4881488;28;89634;-77
2021/12/13 06:13:39;;;;;;;33.03;15.73;;;5.30;99.90;;;;;;4881633;28;91802;-77
2021/12/13 06:16:05;;;;;;;26.60;15.43;;;5.40;99.90;;;;;;4856978;28;89426;-77
2021/12/13 06:18:40;;;;;;;24.73;14.63;;;5.30;99.90;;;;;;4884535;28;92711;-78
2021/12/13 06:21:29;;;;;;;34.17;14.25;;;5.30;99.90;;;;;;4884094;28;90369;-79
2021/12/13 06:23:55;;;;;;;27.45;14.68;;;5.30;99.90;;;;;;4882243;28;89319;-78
2021/12/13 06:26:27;;;;;;;29.25;14.02;;;5.30;99.90;;;;;;4882462;28;90248;-79
2021/12/13 06:28:59;;;;;;;25.08;14.07;;;5.30;99.90;;;;;;4882649;28;90288;-79
2021/12/13 06:31:42;;;;;;;25.63;14.80;;;5.30;99.90;;;;;;4882583;28;89197;-80
2021/12/13 06:34:11;;;;;;;29.58;15.20;;;5.40;99.90;;;;;;4881895;28;91188;-79
2021/12/13 06:36:45;;;;;;;27.92;15.23;;;5.40;99.90;;;;;;4882130;28;90090;-79
2021/12/13 06:39:30;;;;;;;26.95;14.95;;;5.40;99.90;;;;;;4881479;28;92383;-79
2021/12/13 06:42:02;;;;;;;32.97;14.48;;;5.40;99.90;;;;;;4880754;28;89195;-79
2021/12/13 06:44:38;;;;;;;24.35;14.35;;;5.40;99.90;;;;;;4880567;28;93039;-79
2021/12/13 06:47:10;;;;;;;27.52;14.02;;;5.40;99.90;;;;;;4880168;28;94028;-80
2021/12/13 06:49:49;;;;;;;24.23;13.88;;;5.40;99.90;;;;;;4882483;28;89647;-78
2021/12/13 06:52:34;;;;;;;31.25;16.38;;;5.40;99.90;;;;;;4881609;28;89608;-79
2021/12/13 06:55:05;;;;;;;30.95;17.02;;;5.40;99.90;;;;;;4881569;28;90221;-79
2021/12/13 06:57:30;;;;;;;38.38;19.27;;;5.40;99.90;;;;;;4882251;28;91241;-79
2021/12/13 07:00:21;;;;;;;38.20;18.70;;;5.40;99.90;;;;;;4882286;28;90249;-78
2021/12/13 07:03:02;;;;;;;38.45;21.70;;;5.40;99.90;;;;;;4882460;28;89172;-79
2021/12/13 07:05:46;;;;;;;37.38;20.00;;;5.40;99.90;;;;;;4882218;28;89211;-78
2021/12/13 07:08:24;;;;;;;38.35;21.02;;;5.40;99.90;;;;;;4879716;28;92569;-78
2021/12/13 07:10:52;;;;;;;39.42;20.58;;;5.40;99.90;;;;;;4878370;28;90250;-79
2021/12/13 07:13:27;;;;;;;35.53;19.90;;;5.50;99.90;;;;;;4881435;28;90157;-79
2021/12/13 07:16:01;;;;;;;35.42;19.98;;;5.40;99.90;;;;;;4880042;28;92050;-78
2021/12/13 07:18:38;;;;;;;35.25;18.88;;;5.50;99.90;;;;;;4880248;28;93042;-78
2021/12/13 07:21:14;;;;;;;36.00;19.00;;;5.40;99.90;;;;;;4881499;28;89358;-78
2021/12/13 07:24:03;;;;;;;33.65;17.70;;;5.50;99.90;;;;;;4881582;28;89220;-78
2021/12/13 07:26:47;;;;;;;36.03;18.75;;;5.50;99.90;;;;;;4880437;28;91481;-77
2021/12/13 07:29:23;;;;;;;38.58;19.65;;;5.50;99.90;;;;;;4880442;28;91501;-78
2021/12/13 07:32:16;;;;;;;34.38;18.50;;;5.50;99.90;;;;;;4881751;28;89080;-78
2021/12/13 07:34:47;;;;;;;36.45;18.92;;;5.50;99.90;;;;;;4881514;28;89254;-75
2021/12/13 07:37:13;;;;;;;32.50;19.83;;;5.60;99.90;;;;;;4880340;28;92880;-76
2021/12/13 07:39:39;;;;;;;35.22;19.77;;;5.60;99.90;;;;;;4901097;28;90347;-78
2021/12/13 07:42:09;;;;;;;34.13;19.92;;;5.60;99.90;;;;;;4905496;28;91393;-78
2021/12/13 07:44:43;;;;;;;31.67;20.08;;;5.60;99.90;;;;;;4904873;28;89002;-77
2021/12/13 07:47:12;;;;;;;37.95;21.17;;;5.70;99.90;;;;;;4890026;28;92017;-75
2021/12/13 07:49:43;;;;;;;34.38;20.77;;;5.70;99.90;;;;;;4881485;28;90460;-76
2021/12/13 07:52:10;;;;;;;32.28;21.20;;;5.70;99.90;;;;;;4879945;28;91535;-76
2021/12/13 07:54:40;;;;;;;36.80;19.77;;;5.80;99.90;;;;;;4879702;28;89306;-76
2021/12/13 07:57:17;;;;;;;30.05;20.00;;;5.80;99.90;;;;;;4881383;28;88825;-75
2021/12/13 07:59:42;;;;;;;34.78;20.45;;;5.90;99.90;;;;;;4879654;28;92044;-76
2021/12/13 08:02:26;;;;;;;30.17;18.80;;;5.90;99.90;;;;;;4880523;28;90778;-76
2021/12/13 08:04:56;;;;;;;29.88;18.52;;;5.90;99.90;;;;;;4879149;28;90272;-75
2021/12/13 08:07:26;;;;;;;34.50;18.58;;;6.00;99.90;;;;;;4881149;28;89135;-75
2021/12/13 08:09:59;;;;;;;32.78;19.02;;;5.90;99.90;;;;;;4881052;28;89692;-76
2021/12/13 08:12:26;;;;;;;28.83;18.65;;;5.90;99.90;;;;;;4879537;28;91732;-75
2021/12/13 08:15:08;;;;;;;31.90;19.13;;;6.00;99.90;;;;;;4881040;28;89580;-75
2021/12/13 08:17:48;;;;;;;29.65;18.55;;;6.00;99.90;;;;;;4881517;28;89599;-75
2021/12/13 08:20:34;;;;;;;28.58;18.60;;;6.00;99.90;;;;;;4879099;28;92875;-75
2021/12/13 08:23:01;;;;;;;31.02;18.52;;;6.10;99.90;;;;;;4881388;28;89049;-75
2021/12/13 08:25:31;;;;;;;28.50;17.83;;;6.10;99.90;;;;;;4880769;28;89310;-75
2021/12/13 08:28:02;;;;;;;25.88;16.92;;;6.20;99.90;;;;;;4880757;28;89540;-75
2021/12/13 08:30:33;;;;;;;26.38;17.02;;;6.20;99.90;;;;;;4880053;28;91376;-75
2021/12/13 08:33:07;;;;;;;26.42;17.33;;;6.10;99.90;;;;;;4880464;28;90973;-75
2021/12/13 08:36:09;;;;;;;30.05;17.27;;;6.20;99.90;;;;;;4880680;28;89326;-77
2021/12/13 08:38:49;;;;;;;26.73;17.65;;;6.30;99.90;;;;;;4878249;28;91436;-77
2021/12/13 08:41:14;;;;;;;32.15;17.42;;;6.30;99.90;;;;;;4880340;28;89339;-78
2021/12/13 08:43:44;;;;;;;27.67;17.40;;;6.30;99.90;;;;;;4880277;28;89826;-77
2021/12/13 08:46:12;;;;;;;27.38;17.65;;;6.40;99.90;;;;;;4880775;28;89219;-78
2021/12/13 08:48:47;;;;;;;26.83;17.13;;;6.40;99.90;;;;;;4880839;28;89079;-79
2021/12/13 08:51:20;;;;;;;26.83;16.45;;;6.50;99.90;;;;;;4880195;28;90345;-78
2021/12/13 08:53:57;;;;;;;31.95;16.85;;;6.60;99.90;;;;;;4880641;28;89918;-78
2021/12/13 08:56:23;;;;;;;24.52;15.80;;;6.70;99.90;;;;;;4880147;28;90471;-78
2021/12/13 08:59:05;;;;;;;25.35;15.60;;;6.70;99.90;;;;;;4880369;28;90247;-77
2021/12/13 09:01:46;;;;;;;23.35;14.95;;;6.60;99.90;;;;;;4880127;28;90471;-78
2021/12/13 09:04:28;;;;;;;22.77;14.73;;;6.70;99.90;;;;;;4880236;28;89259;-78
2021/12/13 09:06:58;;;;;;;24.02;14.50;;;6.80;99.90;;;;;;4880502;28;89150;-79
2021/12/13 09:09:25;;;;;;;27.17;14.68;;;6.80;99.90;;;;;;4878958;28;92523;-79
2021/12/13 09:11:57;;;;;;;22.30;14.50;;;6.80;99.90;;;;;;4880154;28;89275;-78
2021/12/13 09:14:49;;;;;;;23.23;13.73;;;6.90;99.90;;;;;;4880507;28;89148;-78
2021/12/13 09:17:25;;;;;;;20.67;14.35;;;6.90;99.90;;;;;;4880446;28;89235;-78
2021/12/13 09:20:00;;;;;;;21.75;13.55;;;6.90;99.90;;;;;;4878790;28;91816;-79
2021/12/13 09:22:39;;;;;;;24.85;12.77;;;7.10;99.90;;;;;;4879253;28;92184;-78
2021/12/13 09:25:11;;;;;;;18.75;12.48;;;7.10;99.90;;;;;;4879809;28;94571;-79
2021/12/13 09:27:43;;;;;;;19.15;11.98;;;7.10;99.90;;;;;;4880602;28;89152;-79
2021/12/13 09:30:19;;;;;;;17.25;12.05;;;7.20;99.90;;;;;;4880529;28;89844;-78
2021/12/13 09:32:44;;;;;;;18.73;12.27;;;7.40;99.90;;;;;;4884634;28;89456;-79
2021/12/13 09:35:24;;;;;;;21.88;12.95;;;7.40;99.90;;;;;;4883018;28;91091;-79
2021/12/13 09:37:50;;;;;;;18.90;13.18;;;7.50;99.90;;;;;;4883724;28;89630;-79
2021/12/13 09:40:18;;;;;;;20.27;13.85;;;7.60;99.90;;;;;;4883458;28;88984;-79
2021/12/13 09:42:50;;;;;;;20.27;13.35;;;7.70;99.90;;;;;;4881836;28;93401;-78
2021/12/13 09:45:40;;;;;;;19.58;12.90;;;7.90;99.90;;;;;;4883462;28;90230;-79
2021/12/13 09:48:32;;;;;;;17.73;12.30;;;7.70;99.90;;;;;;4883687;28;90157;-78
2021/12/13 09:51:03;;;;;;;19.13;12.70;;;7.50;99.90;;;;;;4883327;28;89869;-79
2021/12/13 09:53:33;;;;;;;17.73;12.30;;;7.50;99.90;;;;;;4883211;28;90535;-80
2021/12/13 09:56:06;;;;;;;21.55;13.57;;;7.60;99.90;;;;;;4882872;28;89196;-79
2021/12/13 09:58:49;;;;;;;19.38;12.95;;;7.60;99.90;;;;;;4883228;28;89397;-78
2021/12/13 10:01:17;;;;;;;18.70;13.75;;;7.60;99.90;;;;;;4882403;28;90253;-79
2021/12/13 10:03:57;;;;;;;21.17;14.45;;;7.80;99.90;;;;;;4882749;28;89325;-79
2021/12/13 10:06:35;;;;;;;21.08;13.35;;;7.90;99.90;;;;;;4883565;28;89020;-78
2021/12/13 10:09:12;;;;;;;18.10;12.35;;;7.80;99.90;;;;;;4883100;28;89283;-78
2021/12/13 10:11:50;;;;;;;17.10;12.10;;;7.90;99.90;;;;;;4882952;28;89976;-78
2021/12/13 10:14:20;;;;;;;20.70;12.63;;;7.90;99.90;;;;;;4882031;28;90437;-79
2021/12/13 10:16:48;;;;;;;17.55;11.82;;;7.90;99.90;;;;;;4882547;28;89380;-79
2021/12/13 10:19:25;;;;;;;18.50;12.50;;;7.90;99.90;;;;;;4882845;28;89152;-79
2021/12/13 10:21:51;;;;;;;19.42;12.55;;;7.80;99.90;;;;;;4882869;28;89546;-79
2021/12/13 10:24:30;;;;;;;17.95;12.25;;;7.90;99.90;;;;;;4882215;28;89389;-79
2021/12/13 10:26:58;;;;;;;19.10;13.27;;;7.90;99.90;;;;;;4882745;28;89399;-79
2021/12/13 10:29:25;;;;;;;22.20;13.90;;;7.80;99.90;;;;;;4882654;28;89357;-79
2021/12/13 10:32:04;;;;;;;21.77;14.57;;;7.80;99.90;;;;;;4882408;28;89614;-79
2021/12/13 10:34:35;;;;;;;22.85;13.95;;;7.80;99.90;;;;;;4880791;28;92975;-78
2021/12/13 10:37:07;;;;;;;22.77;13.20;;;7.80;99.90;;;;;;4882608;28;89272;-79
2021/12/13 10:39:43;;;;;;;20.90;13.80;;;7.80;99.90;;;;;;4882209;28;90292;-79
2021/12/13 10:42:14;;;;;;;21.52;14.10;;;7.90;99.90;;;;;;4881096;28;89540;-78
2021/12/13 10:44:44;;;;;;;25.33;14.68;;;7.90;99.90;;;;;;4881895;28;90244;-79
2021/12/13 10:47:18;;;;;;;23.52;13.93;;;7.90;99.90;;;;;;4882176;28;89494;-79
2021/12/13 10:49:47;;;;;;;20.55;13.15;;;7.90;99.90;;;;;;4883388;28;89367;-77
2021/12/13 10:52:27;;;;;;;22.13;12.57;;;8.00;99.90;;;;;;4900413;28;89427;-77
2021/12/13 10:54:56;;;;;;;20.65;12.68;;;8.00;99.90;;;;;;4900723;28;90082;-77
2021/12/13 10:57:29;;;;;;;19.90;13.35;;;8.00;99.90;;;;;;4901374;28;92267;-77
2021/12/13 10:59:57;;;;;;;17.02;11.98;;;8.10;99.90;;;;;;4915525;28;89095;-78
2021/12/13 11:02:33;;;;;;;17.52;11.50;;;8.10;99.90;;;;;;4926043;28;89035;-78
2021/12/13 11:05:10;;;;;;;19.30;11.82;;;8.20;99.90;;;;;;4908586;28;90350;-79
2021/12/13 11:07:36;;;;;;;19.02;12.70;;;8.20;99.90;;;;;;4902083;28;92903;-80
2021/12/13 11:10:07;;;;;;;20.05;12.40;;;8.20;99.90;;;;;;4900796;28;89949;-79
2021/12/13 11:12:37;;;;;;;17.67;12.23;;;8.20;99.90;;;;;;4901107;28;93067;-79
2021/12/13 11:15:17;;;;;;;16.92;11.23;;;8.30;99.90;;;;;;4901251;28;90452;-77
2021/12/13 11:17:44;;;;;;;19.05;11.35;;;8.30;99.90;;;;;;4901082;28;90203;-77
2021/12/13 11:20:21;;;;;;;15.82;11.27;;;8.20;99.90;;;;;;4901065;28;89361;-80
2021/12/13 11:22:48;;;;;;;16.63;11.63;;;8.20;99.90;;;;;;4900149;28;91426;-79
2021/12/13 11:25:20;;;;;;;20.17;12.75;;;8.20;99.90;;;;;;4901195;28;90324;-79
2021/12/13 11:27:47;;;;;;;21.42;14.10;;;8.30;99.90;;;;;;4900978;28;89670;-79
2021/12/13 11:30:18;;;;;;;24.48;14.23;;;8.40;99.90;;;;;;4901097;28;90223;-79
2021/12/13 11:32:56;;;;;;;23.48;15.85;;;8.40;99.90;;;;;;4899285;28;92632;-79
2021/12/13 11:35:59;;;;;;;25.67;15.55;;;8.50;99.90;;;;;;4898951;28;93262;-78
2021/12/13 11:39:03;;;;;;;19.90;13.88;;;8.60;99.90;;;;;;4900512;28;90132;-79
2021/12/13 11:41:42;;;;;;;20.42;14.05;;;8.50;99.90;;;;;;4901103;28;89424;-80
2021/12/13 11:44:18;;;;;;;20.67;12.82;;;8.30;99.90;;;;;;4900206;28;90786;-77
2021/12/13 11:47:19;;;;;;;20.23;14.02;;;8.30;99.90;;;;;;4900851;28;89203;-78
2021/12/13 11:50:03;;;;;;;21.83;14.23;;;8.40;99.90;;;;;;4901057;28;90063;-77
2021/12/13 11:53:01;;;;;;;21.05;14.35;;;8.50;99.90;;;;;;4900589;28;89369;-76
2021/12/13 11:55:54;;;;;;;19.48;13.70;;;8.80;99.90;;;;;;4898629;28;92337;-77
2021/12/13 11:59:22;;;;;;;22.33;13.38;;;9.00;99.90;;;;;;4898428;28;93205;-77
2021/12/13 12:02:15;;;;;;;20.30;13.13;;;9.00;99.90;;;;;;4799059;29;93988;-75
2021/12/13 12:05:11;;;;;;;19.95;13.05;;;8.90;99.90;;;;;;4822897;29;89498;-76
2021/12/13 12:07:58;;;;;;;16.83;11.25;;;8.60;99.90;;;;;;4888683;28;89899;-76
2021/12/13 12:11:05;;;;;;;18.48;12.52;;;8.60;99.90;;;;;;4900260;28;89338;-77
2021/12/13 12:13:52;;;;;;;18.35;12.70;;;8.50;99.90;;;;;;4879322;28;89931;-76
2021/12/13 12:16:23;;;;;;;17.17;11.65;;;8.50;99.90;;;;;;4900353;28;89163;-77
2021/12/13 12:18:50;;;;;;;22.38;13.35;;;8.40;99.90;;;;;;4900576;28;90611;-76
2021/12/13 12:21:51;;;;;;;17.52;11.65;;;8.40;99.90;;;;;;4899932;28;89459;-77
2021/12/13 12:24:24;;;;;;;16.10;11.60;;;8.30;99.90;;;;;;4887524;28;92243;-75
2021/12/13 12:26:54;;;;;;;16.17;11.98;;;8.40;99.90;;;;;;4899576;28;90469;-76
2021/12/13 12:29:24;;;;;;;18.10;12.30;;;8.40;99.90;;;;;;4900082;28;89296;-76
2021/12/13 12:31:58;;;;;;;18.02;12.80;;;8.40;99.90;;;;;;4899585;28;93346;-75
2021/12/13 12:34:26;;;;;;;16.83;12.07;;;8.30;99.90;;;;;;4899682;28;89357;-76
2021/12/13 12:36:57;;;;;;;17.77;12.13;;;8.30;99.90;;;;;;4900186;28;89261;-77
2021/12/13 12:39:38;;;;;;;18.65;11.85;;;8.40;99.90;;;;;;4898429;28;92578;-77
2021/12/13 12:42:28;;;;;;;18.88;12.05;;;8.50;99.90;;;;;;4899741;28;89230;-77
2021/12/13 12:44:56;;;;;;;20.45;13.18;;;8.60;99.90;;;;;;4900077;28;88903;-77
2021/12/13 12:48:00;;;;;;;17.25;12.18;;;8.60;99.90;;;;;;4898626;28;89282;-79
2021/12/13 12:50:53;;;;;;;21.48;12.73;;;8.60;99.90;;;;;;4881621;28;89604;-77
2021/12/13 12:53:39;;;;;;;19.70;12.32;;;8.70;99.90;;;;;;4899181;28;91422;-77
2021/12/13 12:56:16;;;;;;;20.75;12.50;;;8.70;99.90;;;;;;4899825;28;90078;-77
2021/12/13 12:58:54;;;;;;;19.98;12.40;;;8.70;99.90;;;;;;4899891;28;89335;-77
2021/12/13 13:01:37;;;;;;;18.17;12.27;;;8.70;99.90;;;;;;4897492;28;91311;-77
2021/12/13 13:04:21;;;;;;;16.45;11.95;;;8.70;99.90;;;;;;4900177;28;89431;-78
2021/12/13 13:06:52;;;;;;;19.10;12.52;;;8.70;99.90;;;;;;4898537;28;89657;-77
2021/12/13 13:09:18;;;;;;;18.13;12.60;;;8.60;99.90;;;;;;4899650;28;89201;-76
2021/12/13 13:11:50;;;;;;;20.75;13.00;;;8.60;99.90;;;;;;4898131;28;91942;-76
2021/12/13 13:14:27;;;;;;;20.52;13.23;;;8.60;99.90;;;;;;4898992;28;90137;-76
2021/12/13 13:17:05;;;;;;;18.92;13.43;;;8.70;99.90;;;;;;4899485;28;89837;-75
2021/12/13 13:19:36;;;;;;;18.33;13.00;;;8.70;99.90;;;;;;4898768;28;90222;-75
2021/12/13 13:22:07;;;;;;;21.08;13.13;;;8.80;99.90;;;;;;4898904;28;93385;-75
2021/12/13 13:24:46;;;;;;;19.55;12.88;;;8.90;99.90;;;;;;4898836;28;89295;-76
2021/12/13 13:27:14;;;;;;;18.10;12.90;;;8.80;99.90;;;;;;4899625;28;89477;-75
2021/12/13 13:29:41;;;;;;;18.45;11.90;;;8.70;99.90;;;;;;4899145;28;89241;-75
2021/12/13 13:32:10;;;;;;;18.45;12.18;;;8.70;99.90;;;;;;4898717;28;89334;-76
2021/12/13 13:34:43;;;;;;;22.85;13.00;;;8.70;99.90;;;;;;4897189;28;93187;-76
2021/12/13 13:37:14;;;;;;;20.65;14.10;;;8.60;99.90;;;;;;4898241;28;93181;-75
2021/12/13 13:39:46;;;;;;;19.38;13.50;;;8.50;99.90;;;;;;4899489;28;89332;-76
2021/12/13 13:42:20;;;;;;;20.95;12.93;;;8.40;99.90;;;;;;4898959;28;89989;-76
2021/12/13 13:45:04;;;;;;;18.58;13.35;;;8.50;99.90;;;;;;4898518;28;91399;-76
2021/12/13 13:47:39;;;;;;;18.95;12.85;;;8.50;99.90;;;;;;4897584;28;94851;-76
2021/12/13 13:50:16;;;;;;;18.38;13.48;;;8.50;99.90;;;;;;4899334;28;89199;-76
2021/12/13 13:52:44;;;;;;;18.23;12.45;;;8.60;99.90;;;;;;4899021;28;91164;-76
2021/12/13 13:55:22;;;;;;;21.42;13.20;;;8.60;99.90;;;;;;4897330;28;93164;-76
2021/12/13 13:58:05;;;;;;;19.58;13.18;;;8.70;99.90;;;;;;4898700;28;89282;-76
2021/12/13 14:00:42;;;;;;;18.10;13.27;;;8.70;99.90;;;;;;4898691;28;89252;-76
2021/12/13 14:03:09;;;;;;;23.15;15.07;;;8.80;99.90;;;;;;4899065;28;91556;-78
2021/12/13 14:05:38;;;;;;;21.60;14.48;;;8.80;99.90;;;;;;4898325;28;89399;-78
2021/12/13 14:08:15;;;;;;;17.95;12.75;;;8.60;99.90;;;;;;4898796;28;89698;-78
2021/12/13 14:10:41;;;;;;;17.23;11.75;;;8.60;99.90;;;;;;4898282;28;90898;-78
2021/12/13 14:13:08;;;;;;;21.90;12.40;;;8.50;99.90;;;;;;4919362;28;90417;-78
2021/12/13 14:15:37;;;;;;;15.73;11.18;;;8.50;99.90;;;;;;4914520;28;90663;-78
2021/12/13 14:18:14;;;;;;;16.15;11.10;;;8.50;99.90;;;;;;4900962;28;89979;-76
2021/12/13 14:20:43;;;;;;;14.30;10.65;;;8.50;99.90;;;;;;4898731;28;89371;-75
2021/12/13 14:23:28;;;;;;;14.05;11.00;;;8.50;99.90;;;;;;4901345;28;89433;-77
2021/12/13 14:26:03;;;;;;;16.02;12.23;;;8.40;99.90;;;;;;4901013;28;89411;-76
2021/12/13 14:28:42;;;;;;;20.50;13.23;;;8.30;99.90;;;;;;4902131;28;89017;-76
2021/12/13 14:31:25;;;;;;;22.25;14.70;;;8.30;99.90;;;;;;4901662;28;89432;-76
2021/12/13 14:33:56;;;;;;;24.25;14.88;;;8.20;99.90;;;;;;4901488;28;89171;-76
2021/12/13 14:36:32;;;;;;;21.77;14.30;;;8.20;99.90;;;;;;4900707;28;91561;-75
2021/12/13 14:39:17;;;;;;;24.00;14.98;;;8.10;99.90;;;;;;4901561;28;89845;-76
2021/12/13 14:41:52;;;;;;;25.13;16.88;;;8.10;99.90;;;;;;4901647;28;89264;-76
2021/12/13 14:44:23;;;;;;;27.42;16.48;;;8.10;99.90;;;;;;4899877;28;92940;-76
2021/12/13 14:46:53;;;;;;;25.67;16.13;;;8.10;99.90;;;;;;4899732;28;92197;-76
2021/12/13 14:49:47;;;;;;;28.73;17.40;;;8.10;99.90;;;;;;4901360;28;91805;-76
2021/12/13 14:52:22;;;;;;;24.33;14.85;;;8.10;99.90;;;;;;4900741;28;89305;-75
2021/12/13 14:54:51;;;;;;;24.42;15.60;;;8.10;99.90;;;;;;4899890;28;93086;-75
2021/12/13 14:57:26;;;;;;;22.98;15.43;;;8.00;99.90;;;;;;4901254;28;89311;-73
2021/12/13 14:59:56;;;;;;;28.15;16.52;;;8.00;99.90;;;;;;4899864;28;92623;-74
2021/12/13 15:02:27;;;;;;;26.20;16.80;;;8.00;99.90;;;;;;4900292;28;90264;-74
2021/12/13 15:04:56;;;;;;;28.50;17.30;;;8.00;99.90;;;;;;4900846;28;93041;-74
2021/12/13 15:07:27;;;;;;;21.85;15.38;;;8.00;99.90;;;;;;4900991;28;90287;-74
2021/12/13 15:10:07;;;;;;;20.70;14.30;;;8.00;99.90;;;;;;4900946;28;89801;-74
2021/12/13 15:12:43;;;;;;;21.88;13.32;;;7.90;99.90;;;;;;4901346;28;89293;-74
2021/12/13 15:15:20;;;;;;;19.58;13.20;;;8.00;99.90;;;;;;4899402;28;90941;-73
2021/12/13 15:17:55;;;;;;;20.17;14.07;;;7.90;99.90;;;;;;4901165;28;89904;-74
2021/12/13 15:20:25;;;;;;;17.25;12.38;;;7.90;99.90;;;;;;4899035;28;90629;-74
2021/12/13 15:22:54;;;;;;;20.65;14.15;;;7.80;99.90;;;;;;4899670;28;89420;-74
2021/12/13 15:25:45;;;;;;;23.08;15.90;;;7.80;99.90;;;;;;4900630;28;89303;-74
2021/12/13 15:28:19;;;;;;;24.33;17.08;;;7.80;99.90;;;;;;4898282;28;94454;-74
2021/12/13 15:30:45;;;;;;;23.08;15.75;;;7.80;99.90;;;;;;4900522;28;91133;-74
2021/12/13 15:33:11;;;;;;;23.60;15.73;;;7.70;99.90;;;;;;4900951;28;89365;-74
2021/12/13 15:35:43;;;;;;;19.48;14.27;;;7.70;99.90;;;;;;4898835;28;92847;-74
2021/12/13 15:38:15;;;;;;;26.25;15.55;;;7.70;99.90;;;;;;4883576;28;92684;-76
2021/12/13 15:40:44;;;;;;;21.33;14.05;;;7.70;99.90;;;;;;4899247;28;92909;-76
2021/12/13 15:43:18;;;;;;;23.13;14.32;;;7.70;99.90;;;;;;4900655;28;89384;-76
2021/12/13 15:45:46;;;;;;;19.95;13.63;;;7.70;99.90;;;;;;4900813;28;89124;-75
2021/12/13 15:51:08;;;;;;;22.42;15.07;;;7.60;99.90;;;;;;4900283;28;89408;-74
2021/12/13 15:53:34;;;;;;;27.88;16.05;;;7.60;99.90;;;;;;4899922;28;90709;-75
2021/12/13 15:56:05;;;;;;;24.08;15.73;;;7.60;99.90;;;;;;4898156;28;92708;-76
2021/12/13 15:58:39;;;;;;;25.58;16.73;;;7.50;99.90;;;;;;4900748;28;91581;-78
2021/12/13 16:01:22;;;;;;;32.90;19.42;;;7.50;99.90;;;;;;4899290;28;91142;-77
2021/12/13 16:03:55;;;;;;;25.42;16.08;;;7.60;99.90;;;;;;4900177;28;89296;-75
2021/12/13 16:06:23;;;;;;;30.15;18.80;;;7.50;99.90;;;;;;4898790;28;92745;-77
2021/12/13 16:08:59;;;;;;;29.67;18.83;;;7.50;99.90;;;;;;4898720;28;91987;-78
2021/12/13 16:11:35;;;;;;;27.98;18.75;;;7.50;99.90;;;;;;4900737;28;90053;-76
2021/12/13 16:14:17;;;;;;;26.42;18.15;;;7.50;99.90;;;;;;4900371;28;89249;-76
2021/12/13 16:17:04;;;;;;;27.50;18.60;;;7.50;99.90;;;;;;4900071;28;89226;-76
2021/12/13 16:19:47;;;;;;;30.55;20.65;;;7.50;99.90;;;;;;4899558;28;90323;-78
2021/12/13 16:22:39;;;;;;;36.45;22.45;;;7.50;99.90;;;;;;4898255;28;93566;-78
2021/12/13 16:25:30;;;;;;;32.88;20.20;;;7.50;99.90;;;;;;4900177;28;89170;-79
2021/12/13 16:28:16;;;;;;;36.35;21.23;;;7.50;99.90;;;;;;4900146;28;89843;-76
2021/12/13 16:30:54;;;;;;;34.67;21.45;;;7.50;99.90;;;;;;4899711;28;89446;-77
2021/12/13 16:33:30;;;;;;;41.88;22.35;;;7.50;99.90;;;;;;4899831;28;90300;-77
2021/12/13 16:36:07;;;;;;;38.97;22.33;;;7.50;99.90;;;;;;4899722;28;89198;-76
2021/12/13 16:38:34;;;;;;;39.22;22.55;;;7.40;99.90;;;;;;4900224;28;89144;-78
2021/12/13 16:41:06;;;;;;;38.25;22.35;;;7.40;99.90;;;;;;4898208;28;93333;-77
2021/12/13 16:43:35;;;;;;;37.83;22.35;;;7.50;99.90;;;;;;4899916;28;89674;-78
2021/12/13 16:46:02;;;;;;;36.72;22.25;;;7.50;99.90;;;;;;4899832;28;90588;-79
2021/12/13 16:48:37;;;;;;;33.70;21.58;;;7.50;99.90;;;;;;4900645;28;90385;-78
2021/12/13 16:51:09;;;;;;;38.30;23.48;;;7.50;99.90;;;;;;4900307;28;90321;-79
2021/12/13 16:53:35;;;;;;;31.40;20.33;;;7.50;99.90;;;;;;4900482;28;89304;-77
2021/12/13 16:56:03;;;;;;;34.92;21.90;;;7.50;99.90;;;;;;4900616;28;89228;-79
2021/12/13 16:58:31;;;;;;;35.53;22.17;;;7.40;99.90;;;;;;4900658;28;89253;-81
2021/12/13 17:00:59;;;;;;;32.65;21.98;;;7.40;99.90;;;;;;4899770;28;90484;-77
2021/12/13 17:03:28;;;;;;;37.28;23.80;;;7.40;99.90;;;;;;4900204;28;89905;-79
2021/12/13 17:06:19;;;;;;;37.20;23.15;;;7.40;99.90;;;;;;4900014;28;89346;-78
2021/12/13 17:08:54;;;;;;;37.13;23.15;;;7.40;99.90;;;;;;4892559;28;91774;-79
2021/12/13 17:11:26;;;;;;;37.42;22.17;;;7.40;99.90;;;;;;4898966;28;93718;-76
2021/12/13 17:14:00;;;;;;;35.33;22.02;;;7.40;99.90;;;;;;4900817;28;90124;-79
2021/12/13 17:16:35;;;;;;;39.58;23.20;;;7.40;99.90;;;;;;4901235;28;89613;-77
2021/12/13 17:19:06;;;;;;;34.67;22.02;;;7.40;99.90;;;;;;4900425;28;93129;-79
2021/12/13 17:21:36;;;;;;;36.55;22.45;;;7.40;99.90;;;;;;4900931;28;90111;-78
2021/12/13 17:24:09;;;;;;;36.65;22.15;;;7.40;99.90;;;;;;4899320;28;89909;-77
2021/12/13 17:26:48;;;;;;;34.97;21.75;;;7.40;99.90;;;;;;4905529;28;89323;-76
2021/12/13 17:29:53;;;;;;;40.55;24.65;;;7.40;99.90;;;;;;4914862;28;91274;-77
2021/12/13 17:32:23;;;;;;;33.28;21.95;;;7.40;99.90;;;;;;4899072;28;89416;-76
2021/12/13 17:34:52;;;;;;;33.33;20.80;;;7.40;99.90;;;;;;4898763;28;89908;-77
2021/12/13 17:37:29;;;;;;;34.85;21.02;;;7.40;99.90;;;;;;4898807;28;90259;-77
2021/12/13 17:40:08;;;;;;;43.08;23.90;;;7.40;99.90;;;;;;4898878;28;90778;-77
2021/12/13 17:42:47;;;;;;;45.47;24.98;;;7.40;99.90;;;;;;4898782;28;90077;-79
2021/12/13 17:45:33;;;;;;;45.15;26.42;;;7.40;99.90;;;;;;4899225;28;89583;-77
2021/12/13 17:48:08;;;;;;;45.53;26.10;;;7.40;99.90;;;;;;4897755;28;89312;-76
2021/12/13 17:50:36;;;;;;;55.50;30.80;;;7.40;99.90;;;;;;4898617;28;90428;-77
2021/12/13 17:53:06;;;;;;;55.58;28.70;;;7.40;99.90;;;;;;4900417;28;93466;-77
2021/12/13 17:55:43;;;;;;;53.53;29.90;;;7.40;99.90;;;;;;4903583;28;89523;-80
2021/12/13 17:58:20;;;;;;;57.55;32.03;;;7.30;99.90;;;;;;4902526;28;89175;-78
2021/12/13 18:00:56;;;;;;;52.55;30.25;;;7.40;99.90;;;;;;4901934;28;89261;-79
2021/12/13 18:03:36;;;;;;;53.47;30.85;;;7.40;99.90;;;;;;4903300;28;91445;-80
2021/12/13 18:06:29;;;;;;;53.03;28.13;;;7.30;99.90;;;;;;4903120;28;92666;-80
2021/12/13 18:09:13;;;;;;;46.15;26.10;;;7.30;99.90;;;;;;4903240;28;89185;-80
2021/12/13 18:12:02;;;;;;;44.85;25.52;;;7.30;99.90;;;;;;4902893;28;89316;-80
2021/12/13 18:14:39;;;;;;;50.83;26.48;;;7.40;99.90;;;;;;4903751;28;89255;-80
2021/12/13 18:17:30;;;;;;;48.42;24.92;;;7.30;99.90;;;;;;4905600;28;90609;-80
2021/12/13 18:20:01;;;;;;;51.92;26.55;;;7.30;99.90;;;;;;4904056;28;89453;-79
2021/12/13 18:22:59;;;;;;;39.67;24.15;;;7.30;99.90;;;;;;4902768;28;89894;-79